createdAt,value
2022-08-19T08:18:42.185Z,993.5
2022-08-19T08:21:13.906Z,993.5
2022-08-19T08:23:46.768Z,993.5
2022-08-19T08:26:20.290Z,993.4
2022-08-19T08:28:52.467Z,993.4
2022-08-19T08:31:25.267Z,993.4
2022-08-19T08:33:58.149Z,993.4
2022-08-19T08:36:30.560Z,993.4
2022-08-19T08:39:03.243Z,993.4
2022-08-19T08:41:36.064Z,993.4
2022-08-19T08:44:07.155Z,993.3
2022-08-19T08:46:40.047Z,993.3
2022-08-19T08:49:13.003Z,993.3
2022-08-19T08:52:01.159Z,993.3
2022-08-19T08:54:36.071Z,993.3
2022-08-19T08:57:07.112Z,993.3
2022-08-19T08:59:39.723Z,993.3
2022-08-19T09:02:12.539Z,993.3
2022-08-19T09:04:44.839Z,993.2
2022-08-19T09:07:47.527Z,993.2
2022-08-19T09:10:26.801Z,993.2
2022-08-19T09:12:58.788Z,993.1
2022-08-19T09:15:38.940Z,993.1
2022-08-19T09:18:20.843Z,993
2022-08-19T09:20:54.343Z,993
2022-08-19T09:23:28.349Z,993.1
2022-08-19T09:26:00.131Z,993.1
2022-08-19T09:28:34.185Z,993.1
2022-08-19T09:31:06.464Z,993.1
2022-08-19T09:33:39.503Z,993.1
2022-08-19T09:36:12.085Z,993.1
2022-08-19T09:38:45.413Z,993.1
2022-08-19T09:41:19.093Z,993.2
2022-08-19T09:43:54.095Z,993.2
2022-08-19T09:46:26.731Z,993.1
2022-08-19T09:49:07.704Z,993.1
2022-08-19T09:51:41.919Z,993.1
2022-08-19T09:54:13.531Z,993
2022-08-19T09:56:46.000Z,992.9
2022-08-19T09:59:22.530Z,992.9
2022-08-19T10:02:11.699Z,993
2022-08-19T10:04:46.161Z,992.8
2022-08-19T10:07:19.345Z,992.9
2022-08-19T10:09:52.732Z,992.9
2022-08-19T10:12:29.143Z,992.9
2022-08-19T10:15:00.901Z,992.8
2022-08-19T10:17:36.070Z,992.8
2022-08-19T10:20:09.327Z,992.8
2022-08-19T10:22:46.341Z,992.9
2022-08-19T10:25:23.845Z,992.9
2022-08-19T10:28:02.138Z,992.8
2022-08-19T10:30:33.873Z,992.9
2022-08-19T10:33:12.391Z,992.8
2022-08-19T10:35:59.271Z,992.8
2022-08-19T10:38:56.604Z,992.8
2022-08-19T10:41:27.623Z,992.8
2022-08-19T10:44:05.685Z,992.8
2022-08-19T10:46:41.217Z,992.8
2022-08-19T10:49:13.107Z,992.8
2022-08-19T10:51:50.748Z,992.8
2022-08-19T10:54:36.710Z,992.7
2022-08-19T10:57:07.831Z,992.7
2022-08-19T10:59:40.449Z,992.7
2022-08-19T11:02:12.763Z,992.7
2022-08-19T11:04:55.829Z,992.6
2022-08-19T11:07:27.328Z,992.6
2022-08-19T11:09:58.403Z,992.6
2022-08-19T11:12:30.238Z,992.5
2022-08-19T11:15:02.278Z,992.5
2022-08-19T11:17:34.924Z,992.5
2022-08-19T11:20:07.013Z,992.4
2022-08-19T11:22:43.599Z,992.4
2022-08-19T11:25:15.191Z,992.4
2022-08-19T11:27:50.492Z,992.4
2022-08-19T11:30:22.471Z,992.4
2022-08-19T11:32:54.745Z,992.4
2022-08-19T11:35:27.407Z,992.5
2022-08-19T11:37:59.840Z,992.4
2022-08-19T11:40:32.713Z,992.4
2022-08-19T11:43:05.555Z,992.4
2022-08-19T11:45:37.232Z,992.3
2022-08-19T11:48:16.335Z,992.4
2022-08-19T11:50:51.680Z,992.4
2022-08-19T11:53:21.913Z,992.4
2022-08-19T11:55:59.943Z,992.3
2022-08-19T11:58:31.485Z,992.3
2022-08-19T12:01:07.626Z,992.3
2022-08-19T12:03:52.660Z,992.2
2022-08-19T12:06:35.871Z,992.3
2022-08-19T12:09:07.613Z,992.3
2022-08-19T12:11:40.323Z,992.2
2022-08-19T12:14:19.781Z,992.2
2022-08-19T12:16:55.274Z,992.2
2022-08-19T12:19:26.729Z,992.2
2022-08-19T12:22:16.678Z,992.2
2022-08-19T12:24:48.578Z,992.2
2022-08-19T12:29:59.950Z,992.1
2022-08-19T12:32:37.503Z,992.1
2022-08-19T12:35:14.208Z,992.1
2022-08-19T12:38:09.711Z,992
2022-08-19T12:40:41.650Z,992
2022-08-19T12:43:23.226Z,992
2022-08-19T12:46:17.133Z,992
2022-08-19T12:49:19.085Z,991.9
2022-08-19T12:52:25.487Z,991.8
2022-08-19T12:55:06.711Z,991.8
2022-08-19T12:57:48.203Z,991.8
2022-08-19T13:00:20.387Z,991.8
2022-08-19T13:02:52.237Z,991.8
2022-08-19T13:05:23.997Z,991.8
2022-08-19T13:08:05.866Z,991.7
2022-08-19T13:10:37.719Z,991.8
2022-08-19T13:13:10.390Z,991.8
2022-08-19T13:15:42.297Z,991.8
2022-08-19T13:18:15.414Z,991.7
2022-08-19T13:20:54.491Z,991.7
2022-08-19T13:23:26.692Z,991.7
2022-08-19T13:25:58.366Z,991.7
2022-08-19T13:28:32.076Z,991.7
2022-08-19T13:31:04.028Z,991.7
2022-08-19T13:33:36.610Z,991.6
2022-08-19T13:36:11.238Z,991.7
2022-08-19T13:38:44.399Z,991.6
2022-08-19T13:41:21.326Z,991.6
2022-08-19T13:45:26.848Z,991.6
2022-08-19T13:48:10.522Z,991.6
2022-08-19T13:50:40.887Z,991.5
2022-08-19T13:55:59.394Z,991.5
2022-08-19T13:58:38.824Z,991.5
2022-08-19T14:01:09.557Z,991.5
2022-08-19T14:06:28.718Z,991.4
2022-08-19T14:11:43.626Z,991.5
2022-08-19T14:17:03.667Z,991.5
2022-08-19T14:19:49.559Z,991.6
2022-08-19T14:22:29.191Z,991.5
2022-08-19T14:25:09.975Z,991.5
2022-08-19T14:32:58.800Z,991.6
2022-08-19T14:35:35.454Z,991.6
2022-08-19T14:38:07.358Z,991.6
2022-08-19T14:40:39.714Z,991.6
2022-08-19T14:43:10.997Z,991.6
2022-08-19T14:45:45.036Z,991.6
2022-08-19T14:48:29.323Z,991.6
2022-08-19T14:51:00.408Z,991.6
2022-08-19T14:53:34.820Z,991.6
2022-08-19T14:56:08.827Z,991.6
2022-08-19T14:58:42.331Z,991.7
2022-08-19T15:01:15.100Z,991.7
2022-08-19T15:03:51.462Z,991.7
2022-08-19T15:06:24.509Z,991.8
2022-08-19T15:14:22.125Z,992
2022-08-19T15:16:54.620Z,992.1
2022-08-19T15:19:26.060Z,992.1
2022-08-19T15:22:07.871Z,992.1
2022-08-19T15:24:51.044Z,992.2
2022-08-19T15:38:05.747Z,992.3
2022-08-19T15:40:37.163Z,992.3
2022-08-19T15:43:19.142Z,992.4
2022-08-19T15:45:51.212Z,992.5
2022-08-19T15:48:23.338Z,992.5
2022-08-19T15:50:57.266Z,992.6
2022-08-19T15:53:37.936Z,992.6
2022-08-19T15:56:10.100Z,992.7
2022-08-19T15:58:48.590Z,992.8
2022-08-19T16:01:27.998Z,992.9
2022-08-19T16:04:20.830Z,993
2022-08-19T16:06:56.572Z,993.1
2022-08-19T16:09:41.663Z,993.1
2022-08-19T16:12:15.837Z,993.2
2022-08-19T16:14:47.734Z,993.3
2022-08-19T16:17:22.014Z,993.3
2022-08-19T16:19:57.611Z,993.5
2022-08-19T16:22:32.140Z,993.5
2022-08-19T16:25:06.141Z,993.6
2022-08-19T16:27:38.953Z,993.7
2022-08-19T16:30:11.643Z,993.8
2022-08-19T16:32:48.108Z,993.9
2022-08-19T16:35:19.784Z,993.9
2022-08-19T16:37:53.175Z,994
2022-08-19T16:40:30.114Z,994
2022-08-19T16:43:02.756Z,994
2022-08-19T16:45:37.378Z,994.1
2022-08-19T16:48:14.483Z,994.1
2022-08-19T16:50:51.449Z,994.2
2022-08-19T16:53:22.758Z,994.3
2022-08-19T16:55:58.931Z,994.2
2022-08-19T16:58:30.526Z,994.2
2022-08-19T17:01:10.572Z,994.2
2022-08-19T17:03:46.853Z,994.3
2022-08-19T17:06:23.172Z,994.2
2022-08-19T17:08:55.502Z,994.1
2022-08-19T17:11:28.164Z,994
2022-08-19T17:13:59.328Z,994
2022-08-19T17:16:32.165Z,994
2022-08-19T17:19:04.698Z,993.9
2022-08-19T17:21:36.074Z,993.9
2022-08-19T17:24:08.956Z,993.8
2022-08-19T17:26:41.648Z,993.9
2022-08-19T17:29:14.350Z,993.8
2022-08-19T17:31:47.010Z,993.8
2022-08-19T17:34:19.856Z,993.8
2022-08-19T17:36:52.050Z,993.9
2022-08-19T17:39:24.605Z,994
2022-08-19T17:42:08.728Z,993.9
2022-08-19T17:44:40.887Z,993.8
2022-08-19T17:47:13.555Z,993.7
2022-08-19T17:49:46.412Z,993.6
2022-08-19T17:52:20.056Z,993.7
2022-08-19T17:54:52.748Z,993.6
2022-08-19T17:57:34.573Z,993.5
2022-08-19T18:00:10.610Z,993.4
2022-08-19T18:02:46.061Z,993.4
2022-08-19T18:05:18.136Z,993.3
2022-08-19T18:07:51.193Z,993.3
2022-08-19T18:10:35.480Z,993.2
2022-08-19T18:13:19.067Z,993.3
2022-08-19T18:15:54.150Z,993.3
2022-08-19T18:18:25.270Z,993.5
2022-08-19T18:20:58.475Z,993.6
2022-08-19T18:23:48.199Z,993.5
2022-08-19T18:26:18.979Z,993.5
2022-08-19T18:28:51.541Z,993.5
2022-08-19T18:31:23.654Z,993.6
2022-08-19T18:33:56.126Z,993.6
2022-08-19T18:36:55.228Z,993.7
2022-08-19T18:39:31.119Z,993.7
2022-08-19T18:42:03.889Z,993.8
2022-08-19T18:44:36.400Z,993.8
2022-08-19T18:47:09.535Z,993.8
2022-08-19T18:49:42.203Z,993.8
2022-08-19T18:52:15.513Z,993.8
2022-08-19T18:54:48.066Z,993.9
2022-08-19T18:57:23.295Z,993.8
2022-08-19T18:59:56.197Z,993.8
2022-08-19T19:02:29.096Z,993.7
2022-08-19T19:05:08.489Z,993.9
2022-08-19T19:07:40.302Z,994
2022-08-19T19:10:13.109Z,994
2022-08-19T19:12:49.066Z,994
2022-08-19T19:15:21.137Z,994
2022-08-19T19:17:55.182Z,994
2022-08-19T19:20:37.996Z,994.1
2022-08-19T19:23:09.162Z,994.1
2022-08-19T19:25:52.528Z,994.1
2022-08-19T19:28:22.278Z,994.3
2022-08-19T19:30:54.514Z,994.4
2022-08-19T19:33:27.626Z,994.4
2022-08-19T19:36:00.030Z,994.2
2022-08-19T19:38:32.613Z,994.3
2022-08-19T19:41:05.767Z,994.3
2022-08-19T19:43:42.163Z,994.3
2022-08-19T19:46:13.843Z,994.2
2022-08-19T19:48:46.600Z,994.1
2022-08-19T19:51:23.705Z,994.2
2022-08-19T19:54:01.115Z,994.1
2022-08-19T19:56:33.066Z,994.1
2022-08-19T19:59:06.030Z,994.2
2022-08-19T20:01:45.020Z,994.3
2022-08-19T20:04:17.170Z,994.3
2022-08-19T20:06:49.462Z,994.3
2022-08-19T20:09:56.649Z,994.3
2022-08-19T20:12:29.756Z,994.3
2022-08-19T20:15:08.513Z,994
2022-08-19T20:17:40.319Z,993.8
2022-08-19T20:20:13.499Z,993.8
2022-08-19T20:22:46.470Z,993.8
2022-08-19T20:25:23.628Z,993.5
2022-08-19T20:27:57.616Z,992.9
2022-08-19T20:30:34.223Z,992.7
2022-08-19T20:33:05.616Z,992.7
2022-08-19T20:35:38.801Z,992.7
2022-08-19T20:40:55.464Z,993.4
2022-08-19T20:43:32.920Z,993.7
2022-08-19T20:46:05.204Z,993.9
2022-08-19T20:48:38.373Z,993.9
2022-08-19T20:51:11.016Z,993.8
2022-08-19T20:53:44.448Z,993.6
2022-08-19T20:56:20.324Z,993.7
2022-08-19T20:59:01.015Z,993.7
2022-08-19T21:01:32.257Z,993.8
2022-08-19T21:04:05.186Z,993.9
2022-08-19T21:06:37.135Z,994.1
2022-08-19T21:09:10.051Z,994.1
2022-08-19T21:11:42.754Z,994.1
2022-08-19T21:14:21.717Z,993.9
2022-08-19T21:16:54.309Z,993.8
2022-08-19T21:19:26.567Z,993.6
2022-08-19T21:22:00.408Z,993.5
2022-08-19T21:24:32.748Z,993.2
2022-08-19T21:27:06.512Z,993
2022-08-19T21:29:38.189Z,993
2022-08-19T21:32:15.432Z,993.1
2022-08-19T21:34:48.100Z,993.1
2022-08-19T21:37:30.756Z,993.1
2022-08-19T21:40:04.448Z,993.1
2022-08-19T21:42:37.091Z,993.1
2022-08-19T21:45:15.569Z,993.1
2022-08-19T21:47:47.549Z,992.9
2022-08-19T21:50:18.294Z,992.9
2022-08-19T21:52:51.198Z,992.8
2022-08-19T21:55:23.954Z,992.7
2022-08-19T21:57:58.339Z,992.5
2022-08-19T22:00:33.946Z,992.4
2022-08-19T22:03:05.569Z,992.4
2022-08-19T22:05:38.673Z,992.5
2022-08-19T22:08:10.988Z,992.5
2022-08-19T22:10:43.790Z,992.6
2022-08-19T22:13:20.938Z,992.4
2022-08-19T22:15:52.613Z,992.1
2022-08-19T22:18:25.796Z,991.7
2022-08-19T22:20:57.936Z,991.5
2022-08-19T22:23:30.645Z,991.6
2022-08-19T22:26:03.515Z,991.8
2022-08-19T22:28:36.509Z,991.9
2022-08-19T22:31:10.126Z,992
2022-08-19T22:33:42.697Z,992.2
2022-08-19T22:36:15.342Z,992.1
2022-08-19T22:38:47.895Z,992
2022-08-19T22:41:20.520Z,992.1
2022-08-19T22:43:55.159Z,992.2
2022-08-19T22:46:27.572Z,992.3
2022-08-19T22:49:03.274Z,992.5
2022-08-19T22:51:34.930Z,992.5
2022-08-19T22:54:07.921Z,992.4
2022-08-19T22:56:40.704Z,992.5
2022-08-19T22:59:13.162Z,992.3
2022-08-19T23:01:46.226Z,992.2
2022-08-19T23:04:19.330Z,992.1
2022-08-19T23:06:51.774Z,991.9
2022-08-19T23:09:31.226Z,991.9
2022-08-19T23:12:02.560Z,991.8
2022-08-19T23:14:35.821Z,991.7
2022-08-19T23:17:08.586Z,991.8
2022-08-19T23:19:41.136Z,992
2022-08-19T23:22:14.271Z,992.1
2022-08-19T23:24:44.852Z,992.2
2022-08-19T23:27:17.371Z,992.3
2022-08-19T23:29:50.174Z,992.3
2022-08-19T23:32:22.886Z,992.4
2022-08-19T23:34:55.556Z,992.5
2022-08-19T23:37:27.790Z,992.7
2022-08-19T23:40:01.052Z,993.1
2022-08-19T23:42:33.219Z,993.4
2022-08-19T23:45:23.751Z,993.8
2022-08-19T23:47:57.646Z,994.2
2022-08-19T23:50:29.740Z,994.3
2022-08-19T23:53:05.623Z,994.3
2022-08-19T23:55:37.661Z,994
2022-08-19T23:58:10.399Z,993.7
